createdAt,value
2019-02-11T00:01:02.906Z,5.00
2019-02-11T00:03:31.198Z,4.90
2019-02-11T00:05:59.557Z,4.90
2019-02-11T00:08:27.733Z,4.90
2019-02-11T00:10:56.882Z,4.90
2019-02-11T00:13:24.999Z,4.90
2019-02-11T00:15:53.154Z,4.80
2019-02-11T00:18:21.472Z,4.80
2019-02-11T00:20:49.582Z,4.80
2019-02-11T00:23:20.051Z,4.80
2019-02-11T00:25:50.085Z,4.80
2019-02-11T00:28:18.143Z,4.90
2019-02-11T00:30:46.310Z,4.90
2019-02-11T00:33:14.419Z,4.90
2019-02-11T00:35:43.566Z,4.90
2019-02-11T00:38:11.775Z,5.00
2019-02-11T00:40:39.809Z,4.90
2019-02-11T00:43:09.072Z,5.00
2019-02-11T00:45:38.203Z,5.00
2019-02-11T00:48:07.174Z,5.00
2019-02-11T00:50:35.423Z,5.10
2019-02-11T00:53:03.548Z,5.10
2019-02-11T00:55:31.650Z,5.20
2019-02-11T00:57:59.926Z,5.20
2019-02-11T01:00:28.062Z,5.20
2019-02-11T01:02:56.143Z,5.20
2019-02-11T01:05:24.551Z,5.20
2019-02-11T01:07:52.739Z,5.30
2019-02-11T01:10:21.295Z,5.30
2019-02-11T01:12:49.338Z,5.30
2019-02-11T01:15:17.742Z,5.40
2019-02-11T01:17:45.812Z,5.30
2019-02-11T01:20:13.936Z,5.40
2019-02-11T01:22:42.009Z,5.40
2019-02-11T01:25:10.051Z,5.40
2019-02-11T01:27:38.129Z,5.50
2019-02-11T01:30:09.929Z,5.50
2019-02-11T01:32:39.186Z,5.50
2019-02-11T01:35:07.876Z,5.40
2019-02-11T01:37:36.002Z,5.50
2019-02-11T01:40:07.381Z,5.50
2019-02-11T01:42:35.429Z,5.50
2019-02-11T01:45:07.791Z,5.60
2019-02-11T01:47:35.978Z,5.50
2019-02-11T01:50:05.604Z,5.60
2019-02-11T01:52:33.726Z,5.60
2019-02-11T01:55:01.900Z,5.60
2019-02-11T01:57:30.835Z,5.60
2019-02-11T01:59:58.959Z,5.60
2019-02-11T02:02:27.003Z,5.60
2019-02-11T02:04:55.141Z,5.60
2019-02-11T02:07:23.340Z,5.60
2019-02-11T02:09:51.411Z,5.70
2019-02-11T02:12:19.637Z,5.60
2019-02-11T02:14:47.808Z,5.60
2019-02-11T02:17:16.004Z,5.60
2019-02-11T02:19:44.214Z,5.60
2019-02-11T02:22:12.418Z,5.60
2019-02-11T02:24:40.507Z,5.60
2019-02-11T02:27:08.730Z,5.60
2019-02-11T02:29:38.547Z,5.50
2019-02-11T02:32:06.766Z,5.50
2019-02-11T02:34:35.272Z,5.50
2019-02-11T02:37:03.374Z,5.50
2019-02-11T02:39:31.500Z,5.50
2019-02-11T02:41:59.564Z,5.50
2019-02-11T02:44:27.610Z,5.50
2019-02-11T02:46:56.020Z,5.50
2019-02-11T02:49:24.207Z,5.60
2019-02-11T02:51:53.329Z,5.60
2019-02-11T02:54:21.471Z,5.60
2019-02-11T02:56:49.640Z,5.60
2019-02-11T02:59:17.826Z,5.60
2019-02-11T03:01:46.050Z,5.60
2019-02-11T03:04:14.135Z,5.60
2019-02-11T03:06:42.219Z,5.70
2019-02-11T03:09:11.295Z,5.70
2019-02-11T03:11:39.383Z,5.70
2019-02-11T03:14:07.647Z,5.70
2019-02-11T03:16:35.910Z,5.70
2019-02-11T03:19:04.082Z,5.70
2019-02-11T03:21:32.461Z,5.70
2019-02-11T03:24:00.623Z,5.70
2019-02-11T03:26:28.763Z,5.70
2019-02-11T03:28:57.238Z,5.80
2019-02-11T03:31:27.642Z,5.80
2019-02-11T03:33:55.906Z,5.80
2019-02-11T03:36:24.101Z,5.80
2019-02-11T03:38:52.216Z,5.80
2019-02-11T03:41:20.281Z,5.90
2019-02-11T03:43:48.491Z,5.90
2019-02-11T03:46:16.566Z,5.90
2019-02-11T03:48:44.901Z,5.90
2019-02-11T03:51:13.243Z,5.90
2019-02-11T03:53:45.183Z,5.90
2019-02-11T03:56:13.465Z,5.90
2019-02-11T03:58:41.744Z,5.90
2019-02-11T04:01:09.869Z,5.90
2019-02-11T04:03:37.954Z,5.90
2019-02-11T04:06:05.998Z,5.90
2019-02-11T04:08:34.124Z,5.90
2019-02-11T04:11:02.364Z,5.90
2019-02-11T04:13:30.498Z,5.90
2019-02-11T04:15:58.580Z,5.90
2019-02-11T04:18:27.692Z,5.90
2019-02-11T04:20:55.881Z,5.90
2019-02-11T04:23:23.967Z,5.90
2019-02-11T04:25:52.104Z,5.90
2019-02-11T04:28:20.249Z,5.90
2019-02-11T04:30:48.447Z,5.90
2019-02-11T04:33:16.794Z,5.90
2019-02-11T04:35:45.002Z,5.90
2019-02-11T04:38:13.397Z,5.80
2019-02-11T04:40:41.546Z,5.80
2019-02-11T04:43:09.625Z,5.90
2019-02-11T04:45:37.714Z,5.80
2019-02-11T04:48:05.936Z,5.90
2019-02-11T04:50:34.026Z,5.80
2019-02-11T04:53:02.097Z,5.80
2019-02-11T04:55:30.165Z,5.80
2019-02-11T04:57:58.273Z,5.80
2019-02-11T05:00:26.383Z,5.80
2019-02-11T05:02:54.419Z,5.80
2019-02-11T05:05:22.584Z,5.80
2019-02-11T05:07:50.630Z,5.70
2019-02-11T05:10:18.750Z,5.70
2019-02-11T05:12:46.808Z,5.70
2019-02-11T05:15:14.965Z,5.70
2019-02-11T05:17:43.076Z,5.80
2019-02-11T05:20:11.191Z,5.80
2019-02-11T05:22:39.322Z,5.80
2019-02-11T05:25:07.462Z,5.80
2019-02-11T05:27:35.598Z,5.80
2019-02-11T05:30:04.231Z,5.80
2019-02-11T05:32:32.308Z,5.80
2019-02-11T05:35:00.563Z,5.80
2019-02-11T05:37:28.691Z,5.80
2019-02-11T05:39:56.761Z,5.90
2019-02-11T05:42:24.815Z,5.80
2019-02-11T05:44:54.183Z,5.90
2019-02-11T05:47:22.464Z,5.90
2019-02-11T05:49:50.520Z,5.90
2019-02-11T05:52:19.510Z,5.90
2019-02-11T05:54:47.603Z,5.90
2019-02-11T05:57:15.678Z,5.90
2019-02-11T05:59:43.873Z,5.90
2019-02-11T06:02:13.014Z,5.90
2019-02-11T06:04:41.195Z,5.90
2019-02-11T06:07:09.483Z,5.90
2019-02-11T06:09:37.596Z,5.90
2019-02-11T06:12:05.795Z,5.90
2019-02-11T06:14:33.841Z,6.00
2019-02-11T06:17:01.973Z,6.00
2019-02-11T06:19:30.074Z,6.00
2019-02-11T06:21:58.140Z,5.90
2019-02-11T06:24:26.311Z,6.00
2019-02-11T06:26:57.202Z,6.00
2019-02-11T06:29:25.509Z,6.00
2019-02-11T06:31:53.581Z,6.00
2019-02-11T06:34:21.734Z,6.00
2019-02-11T06:36:49.887Z,6.00
2019-02-11T06:39:18.013Z,5.90
2019-02-11T06:41:46.288Z,6.00
2019-02-11T06:44:14.576Z,5.90
2019-02-11T06:46:42.756Z,6.00
2019-02-11T06:49:10.847Z,5.90
2019-02-11T06:51:39.060Z,5.90
2019-02-11T06:54:07.164Z,5.90
2019-02-11T06:56:35.271Z,5.90
2019-02-11T06:59:03.507Z,5.80
2019-02-11T07:01:31.569Z,5.80
2019-02-11T07:03:59.659Z,5.80
2019-02-11T07:06:27.713Z,5.80
2019-02-11T07:08:55.955Z,5.80
2019-02-11T07:11:24.072Z,5.80
2019-02-11T07:13:52.128Z,5.80
2019-02-11T07:16:20.352Z,5.80
2019-02-11T07:18:48.441Z,5.70
2019-02-11T07:21:16.577Z,5.70
2019-02-11T07:23:44.711Z,5.70
2019-02-11T07:26:12.979Z,5.70
2019-02-11T07:28:41.153Z,5.70
2019-02-11T07:31:11.054Z,5.70
2019-02-11T07:33:39.316Z,5.80
2019-02-11T07:36:07.537Z,5.80
2019-02-11T07:38:35.642Z,5.80
2019-02-11T07:41:04.190Z,5.80
2019-02-11T07:43:54.891Z,5.90
2019-02-11T07:46:31.722Z,5.90
2019-02-11T07:48:59.793Z,5.90
2019-02-11T07:51:27.812Z,5.80
2019-02-11T07:53:55.874Z,5.90
2019-02-11T07:56:23.959Z,5.90
2019-02-11T07:58:52.047Z,5.90
2019-02-11T08:01:20.110Z,5.90
2019-02-11T08:03:49.307Z,5.90
2019-02-11T08:06:17.463Z,5.90
2019-02-11T08:08:45.501Z,5.90
2019-02-11T08:11:13.548Z,5.90
2019-02-11T08:13:41.677Z,5.90
2019-02-11T08:16:09.847Z,5.90
2019-02-11T08:18:37.943Z,5.90
2019-02-11T08:21:06.070Z,6.00
2019-02-11T08:23:34.137Z,6.00
2019-02-11T08:26:02.234Z,5.90
2019-02-11T08:28:31.413Z,5.90
2019-02-11T08:30:59.623Z,6.00
2019-02-11T08:33:27.755Z,6.00
2019-02-11T08:35:56.190Z,6.00
2019-02-11T08:38:24.263Z,6.00
2019-02-11T08:40:52.346Z,6.10
2019-02-11T08:43:20.471Z,6.10
2019-02-11T08:45:48.872Z,6.10
2019-02-11T08:48:17.261Z,6.20
2019-02-11T08:50:46.307Z,6.20
2019-02-11T08:53:14.437Z,6.30
2019-02-11T08:55:42.560Z,6.40
2019-02-11T08:58:13.086Z,6.50
2019-02-11T09:00:41.123Z,6.50
2019-02-11T09:03:09.298Z,6.50
2019-02-11T09:05:37.764Z,6.40
2019-02-11T09:08:05.966Z,6.40
2019-02-11T09:10:34.102Z,6.50
2019-02-11T09:13:02.346Z,6.60
2019-02-11T09:15:30.425Z,6.60
2019-02-11T09:17:58.503Z,6.50
2019-02-11T09:20:26.596Z,6.50
2019-02-11T09:22:54.938Z,6.50
2019-02-11T09:25:23.294Z,6.50
2019-02-11T09:27:51.494Z,6.50
2019-02-11T09:30:20.688Z,6.50
2019-02-11T09:32:48.763Z,6.50
2019-02-11T09:35:17.888Z,6.40
2019-02-11T09:37:46.041Z,6.40
2019-02-11T09:40:14.852Z,6.40
2019-02-11T09:42:43.227Z,6.40
2019-02-11T09:45:16.417Z,6.40
2019-02-11T09:47:44.454Z,6.40
2019-02-11T09:50:23.155Z,6.50
2019-02-11T09:52:51.263Z,6.40
2019-02-11T09:55:25.897Z,6.40
2019-02-11T09:57:54.266Z,6.50
2019-02-11T10:00:22.808Z,6.50
2019-02-11T10:02:50.972Z,6.50
2019-02-11T10:05:19.243Z,6.40
2019-02-11T10:07:50.686Z,6.40
2019-02-11T10:10:18.957Z,6.50
2019-02-11T10:12:47.320Z,6.60
2019-02-11T10:15:15.976Z,6.50
2019-02-11T10:17:44.076Z,6.60
2019-02-11T10:20:12.441Z,6.50
2019-02-11T10:22:40.606Z,6.50
2019-02-11T10:25:13.120Z,6.60
2019-02-11T10:27:41.842Z,6.60
2019-02-11T10:30:12.118Z,6.70
2019-02-11T10:32:40.188Z,6.70
2019-02-11T10:35:09.475Z,6.80
2019-02-11T10:37:37.858Z,6.80
2019-02-11T10:40:09.488Z,6.80
2019-02-11T10:42:37.675Z,6.80
2019-02-11T10:45:08.127Z,6.80
2019-02-11T10:47:38.384Z,6.90
2019-02-11T10:50:07.569Z,6.90
2019-02-11T10:52:36.363Z,6.90
2019-02-11T10:55:06.658Z,6.90
2019-02-11T10:57:34.799Z,7.00
2019-02-11T11:00:03.897Z,7.00
2019-02-11T11:02:34.182Z,7.10
2019-02-11T11:05:02.485Z,7.00
2019-02-11T11:07:30.675Z,6.90
2019-02-11T11:09:59.044Z,6.90
2019-02-11T11:12:28.960Z,6.80
2019-02-11T11:14:57.292Z,6.80
2019-02-11T11:17:25.599Z,6.80
2019-02-11T11:19:53.833Z,6.90
2019-02-11T11:22:21.949Z,7.00
2019-02-11T11:24:50.172Z,7.30
2019-02-11T11:27:18.827Z,7.50
2019-02-11T11:29:47.009Z,7.60
2019-02-11T11:32:15.161Z,7.70
2019-02-11T11:34:43.330Z,7.70
2019-02-11T11:37:11.388Z,7.50
2019-02-11T11:39:39.760Z,7.40
2019-02-11T11:42:08.173Z,7.50
2019-02-11T11:44:36.242Z,7.50
2019-02-11T11:47:04.597Z,7.40
2019-02-11T11:49:32.668Z,7.20
2019-02-11T11:52:01.740Z,7.20
2019-02-11T11:54:30.064Z,7.20
2019-02-11T11:56:59.473Z,7.20
2019-02-11T11:59:27.884Z,7.30
2019-02-11T12:01:56.722Z,7.40
2019-02-11T12:04:25.940Z,7.50
2019-02-11T12:06:54.036Z,7.40
2019-02-11T12:09:22.311Z,7.30
2019-02-11T12:11:50.976Z,7.20
2019-02-11T12:14:19.064Z,7.20
2019-02-11T12:16:57.081Z,7.20
2019-02-11T12:19:18.598Z,7.30
2019-02-11T12:21:46.832Z,7.40
2019-02-11T12:24:14.875Z,7.40
2019-02-11T12:26:43.010Z,7.40
2019-02-11T12:29:11.151Z,7.40
2019-02-11T12:31:39.283Z,7.40
2019-02-11T12:34:07.571Z,7.30
2019-02-11T12:36:35.947Z,7.10
2019-02-11T12:39:05.438Z,7.10
2019-02-11T12:41:33.611Z,7.00
2019-02-11T12:44:01.757Z,7.00
2019-02-11T12:46:30.074Z,7.00
2019-02-11T12:49:01.539Z,7.00
2019-02-11T12:51:28.172Z,7.00
2019-02-11T12:53:56.360Z,7.10
2019-02-11T12:56:24.464Z,7.10
2019-02-11T12:58:52.526Z,7.00
2019-02-11T13:01:20.763Z,7.00
2019-02-11T13:03:48.936Z,7.20
2019-02-11T13:06:17.156Z,7.40
2019-02-11T13:08:47.563Z,7.60
2019-02-11T13:11:16.051Z,7.70
2019-02-11T13:13:44.236Z,7.70
2019-02-11T13:16:12.441Z,7.50
2019-02-11T13:18:40.601Z,7.30
2019-02-11T13:21:09.060Z,7.10
2019-02-11T13:23:37.193Z,6.90
2019-02-11T13:26:05.412Z,7.00
2019-02-11T13:28:33.649Z,7.00
2019-02-11T13:31:01.965Z,7.10
2019-02-11T13:33:30.028Z,7.10
2019-02-11T13:35:58.148Z,7.10
2019-02-11T13:38:26.216Z,7.10
2019-02-11T13:40:54.397Z,7.00
2019-02-11T13:43:22.570Z,7.00
2019-02-11T13:45:50.740Z,7.00
2019-02-11T13:48:18.938Z,7.20
2019-02-11T13:50:47.152Z,7.30
2019-02-11T13:53:15.325Z,7.30
2019-02-11T13:55:43.509Z,7.20
2019-02-11T13:58:16.416Z,7.20
2019-02-11T14:00:49.448Z,7.10
2019-02-11T14:03:19.848Z,7.00
2019-02-11T14:05:45.934Z,7.00
2019-02-11T14:08:13.990Z,7.10
2019-02-11T14:10:42.416Z,7.10
2019-02-11T14:13:12.321Z,7.10
2019-02-11T14:15:40.859Z,7.10
2019-02-11T14:18:14.250Z,7.10
2019-02-11T14:20:41.683Z,7.00
2019-02-11T14:23:10.105Z,7.00
2019-02-11T14:25:45.188Z,7.10
2019-02-11T14:28:08.396Z,7.00
2019-02-11T14:30:36.624Z,7.00
2019-02-11T14:33:05.538Z,6.90
2019-02-11T14:35:33.921Z,6.90
2019-02-11T14:38:03.033Z,7.00
2019-02-11T14:40:32.814Z,7.00
2019-02-11T14:43:01.258Z,7.10
2019-02-11T14:45:30.485Z,7.10
2019-02-11T14:47:58.948Z,7.00
2019-02-11T14:50:28.290Z,7.00
2019-02-11T14:52:56.491Z,7.10
2019-02-11T14:55:24.972Z,7.00
2019-02-11T14:57:53.093Z,7.00
2019-02-11T15:00:21.936Z,7.00
2019-02-11T15:02:50.255Z,6.90
2019-02-11T15:05:43.331Z,6.90
2019-02-11T15:08:13.660Z,6.80
2019-02-11T15:10:41.824Z,7.00
2019-02-11T15:13:09.916Z,7.00
2019-02-11T15:15:38.414Z,6.80
2019-02-11T15:18:06.534Z,6.90
2019-02-11T15:20:34.594Z,6.80
2019-02-11T15:23:03.918Z,6.70
2019-02-11T15:25:32.011Z,6.70
2019-02-11T15:28:00.340Z,6.70
2019-02-11T15:30:28.498Z,6.60
2019-02-11T15:32:56.859Z,6.50
2019-02-11T15:35:25.137Z,6.50
2019-02-11T15:37:54.328Z,6.50
2019-02-11T15:40:22.541Z,6.50
2019-02-11T15:42:50.598Z,6.50
2019-02-11T15:45:18.811Z,6.50
2019-02-11T15:47:46.884Z,6.60
2019-02-11T15:50:15.658Z,6.60
2019-02-11T15:52:44.059Z,6.60
2019-02-11T15:55:14.937Z,6.40
2019-02-11T15:57:43.044Z,6.30
2019-02-11T16:00:14.582Z,6.20
2019-02-11T16:02:42.901Z,6.00
2019-02-11T16:05:15.956Z,5.80
2019-02-11T16:07:43.503Z,5.80
2019-02-11T16:10:14.438Z,5.60
2019-02-11T16:12:42.608Z,5.60
2019-02-11T16:15:10.885Z,5.50
2019-02-11T16:17:39.052Z,5.50
2019-02-11T16:20:08.049Z,5.30
2019-02-11T16:22:36.218Z,5.20
2019-02-11T16:25:05.564Z,5.10
2019-02-11T16:27:33.692Z,5.00
2019-02-11T16:30:01.829Z,5.00
2019-02-11T16:32:30.607Z,4.90
2019-02-11T16:34:58.678Z,4.90
2019-02-11T16:37:26.858Z,4.90
2019-02-11T16:39:54.905Z,4.80
2019-02-11T16:42:24.109Z,4.80
2019-02-11T16:44:52.111Z,4.80
2019-02-11T16:47:20.222Z,4.80
2019-02-11T16:49:48.280Z,4.80
2019-02-11T16:52:16.304Z,4.80
2019-02-11T16:54:44.421Z,4.70
2019-02-11T16:57:12.612Z,4.70
2019-02-11T16:59:40.661Z,4.70
2019-02-11T17:02:08.738Z,4.70
2019-02-11T17:04:36.810Z,4.80
2019-02-11T17:07:13.235Z,4.80
2019-02-11T17:09:41.361Z,4.80
2019-02-11T17:12:09.468Z,4.70
2019-02-11T17:14:37.555Z,4.70
2019-02-11T17:17:05.630Z,4.70
2019-02-11T17:19:33.677Z,4.80
2019-02-11T17:22:01.872Z,4.90
2019-02-11T17:24:30.000Z,4.90
2019-02-11T17:26:58.091Z,4.90
2019-02-11T17:29:26.217Z,4.90
2019-02-11T17:31:54.414Z,4.90
2019-02-11T17:34:22.943Z,4.90
2019-02-11T17:36:51.361Z,4.80
2019-02-11T17:39:19.549Z,4.80
2019-02-11T17:41:47.649Z,4.80
2019-02-11T17:44:15.779Z,4.80
2019-02-11T17:46:43.979Z,4.80
2019-02-11T17:49:17.588Z,4.80
2019-02-11T17:51:42.366Z,4.80
2019-02-11T17:54:10.501Z,4.90
2019-02-11T17:56:38.569Z,4.90
2019-02-11T17:59:06.743Z,4.80
2019-02-11T18:01:34.933Z,4.80
2019-02-11T18:04:02.999Z,4.80
2019-02-11T18:06:35.967Z,4.80
2019-02-11T18:09:07.511Z,4.80
2019-02-11T18:11:35.731Z,4.80
2019-02-11T18:14:03.790Z,4.80
2019-02-11T18:16:31.846Z,4.70
2019-02-11T18:18:59.997Z,4.70
2019-02-11T18:21:28.156Z,4.60
2019-02-11T18:23:56.398Z,4.60
2019-02-11T18:26:25.871Z,4.60
2019-02-11T18:28:54.098Z,4.60
2019-02-11T18:31:22.144Z,4.50
2019-02-11T18:33:50.227Z,4.60
2019-02-11T18:36:18.264Z,4.50
2019-02-11T18:38:46.343Z,4.50
2019-02-11T18:41:14.556Z,4.50
2019-02-11T18:43:42.775Z,4.50
2019-02-11T18:46:10.922Z,4.40
2019-02-11T18:48:38.989Z,4.40
2019-02-11T18:51:08.681Z,4.40
2019-02-11T18:53:37.002Z,4.40
2019-02-11T18:56:05.383Z,4.40
2019-02-11T18:58:33.537Z,4.50
2019-02-11T19:01:01.631Z,4.50
2019-02-11T19:03:29.755Z,4.50
2019-02-11T19:05:57.916Z,4.50
2019-02-11T19:08:26.017Z,4.60
2019-02-11T19:10:54.747Z,4.60
2019-02-11T19:13:23.575Z,4.60
2019-02-11T19:15:51.854Z,4.50
2019-02-11T19:18:20.113Z,4.50
2019-02-11T19:20:48.238Z,4.50
2019-02-11T19:23:16.618Z,4.40
2019-02-11T19:25:48.843Z,4.40
2019-02-11T19:28:18.287Z,4.40
2019-02-11T19:30:48.692Z,4.30
2019-02-11T19:33:21.612Z,4.30
2019-02-11T19:35:50.035Z,4.30
2019-02-11T19:38:18.826Z,4.20
2019-02-11T19:40:47.126Z,4.30
2019-02-11T19:43:16.025Z,4.20
2019-02-11T19:45:44.422Z,4.20
2019-02-11T19:48:12.690Z,4.10
2019-02-11T19:50:40.850Z,4.10
2019-02-11T19:53:09.034Z,4.10
2019-02-11T19:55:37.237Z,4.10
2019-02-11T19:58:05.526Z,4.00
2019-02-11T20:00:33.832Z,4.00
2019-02-11T20:03:02.146Z,4.00
2019-02-11T20:05:30.375Z,3.90
2019-02-11T20:07:58.519Z,3.90
2019-02-11T20:10:26.772Z,3.90
2019-02-11T20:12:55.231Z,3.90
2019-02-11T20:15:23.800Z,3.80
2019-02-11T20:17:51.953Z,3.80
2019-02-11T20:20:21.284Z,3.80
2019-02-11T20:22:50.728Z,3.80
2019-02-11T20:25:19.377Z,3.80
2019-02-11T20:27:47.587Z,3.80
2019-02-11T20:30:19.221Z,3.80
2019-02-11T20:32:47.391Z,3.80
2019-02-11T20:35:15.992Z,3.70
2019-02-11T20:37:44.403Z,3.80
2019-02-11T20:40:15.437Z,3.80
2019-02-11T20:42:43.519Z,3.80
2019-02-11T20:45:18.405Z,3.80
2019-02-11T20:47:46.718Z,3.80
2019-02-11T20:50:14.787Z,3.80
2019-02-11T20:52:43.165Z,3.80
2019-02-11T20:55:12.765Z,3.80
2019-02-11T20:57:41.530Z,3.80
2019-02-11T21:00:15.790Z,3.80
2019-02-11T21:02:43.843Z,3.80
2019-02-11T21:05:12.057Z,3.80
2019-02-11T21:07:40.399Z,3.80
2019-02-11T21:10:10.314Z,3.80
2019-02-11T21:12:38.381Z,3.80
2019-02-11T21:15:08.296Z,3.80
2019-02-11T21:17:36.453Z,3.70
2019-02-11T21:20:07.288Z,3.70
2019-02-11T21:22:35.398Z,3.60
2019-02-11T21:25:03.627Z,3.60
2019-02-11T21:27:33.427Z,3.60
2019-02-11T21:30:02.143Z,3.60
2019-02-11T21:32:30.629Z,3.60
2019-02-11T21:34:59.064Z,3.60
2019-02-11T21:37:27.185Z,3.50
2019-02-11T21:39:55.464Z,3.60
2019-02-11T21:42:24.612Z,3.60
2019-02-11T21:44:52.652Z,3.60
2019-02-11T21:47:20.782Z,3.60
2019-02-11T21:49:49.030Z,3.60
2019-02-11T21:52:17.728Z,3.50
2019-02-11T21:54:46.418Z,3.60
2019-02-11T21:57:14.626Z,3.50
2019-02-11T21:59:42.927Z,3.60
2019-02-11T22:02:11.134Z,3.60
2019-02-11T22:04:39.626Z,3.60
2019-02-11T22:07:08.735Z,3.70
2019-02-11T22:09:37.146Z,3.70
2019-02-11T22:12:05.716Z,3.80
2019-02-11T22:14:34.141Z,3.80
2019-02-11T22:17:02.268Z,3.80
2019-02-11T22:19:31.388Z,3.90
2019-02-11T22:21:59.629Z,3.90
2019-02-11T22:24:27.744Z,3.90
2019-02-11T22:26:58.857Z,3.90
2019-02-11T22:29:26.902Z,3.90
2019-02-11T22:31:54.932Z,3.90
2019-02-11T22:34:25.417Z,3.90
2019-02-11T22:36:53.623Z,4.00
2019-02-11T22:39:21.740Z,4.00
2019-02-11T22:41:49.901Z,4.00
2019-02-11T22:44:18.154Z,4.10
2019-02-11T22:46:46.215Z,4.20
2019-02-11T22:49:14.342Z,4.20
2019-02-11T22:51:42.440Z,4.20
2019-02-11T22:54:10.482Z,4.20
2019-02-11T22:56:38.554Z,4.30
2019-02-11T22:59:06.733Z,4.30
2019-02-11T23:01:34.770Z,4.30
2019-02-11T23:04:03.051Z,4.30
2019-02-11T23:06:31.123Z,4.30
2019-02-11T23:08:59.142Z,4.30
2019-02-11T23:11:27.230Z,4.30
2019-02-11T23:13:55.383Z,4.30
2019-02-11T23:16:23.483Z,4.30
2019-02-11T23:18:51.510Z,4.30
2019-02-11T23:21:21.618Z,4.30
2019-02-11T23:23:49.772Z,4.30
2019-02-11T23:26:18.856Z,4.30
2019-02-11T23:28:46.944Z,4.30
2019-02-11T23:31:15.053Z,4.20
2019-02-11T23:33:43.130Z,4.20
2019-02-11T23:36:11.283Z,4.20
2019-02-11T23:38:39.359Z,4.10
2019-02-11T23:41:07.471Z,4.10
2019-02-11T23:43:35.582Z,4.10
2019-02-11T23:46:03.638Z,4.10
2019-02-11T23:48:31.742Z,4.00
2019-02-11T23:51:00.751Z,3.90
2019-02-11T23:53:28.910Z,3.90
2019-02-11T23:55:56.968Z,3.90
2019-02-11T23:58:25.283Z,3.90
